createdAt,value
2023-03-06T00:01:48.901Z,99803.22
2023-03-06T00:04:51.532Z,99799.72
2023-03-06T00:07:54.061Z,99800.66
2023-03-06T00:10:57.352Z,99813.78
2023-03-06T00:13:59.774Z,99806.88
2023-03-06T00:17:02.220Z,99797.00
2023-03-06T00:20:07.114Z,99795.19
2023-03-06T00:23:10.263Z,99792.81
2023-03-06T00:26:12.837Z,99795.22
2023-03-06T00:29:17.624Z,99777.13
2023-03-06T00:32:20.820Z,99778.75
2023-03-06T00:35:23.438Z,99789.78
2023-03-06T00:38:28.543Z,99790.75
2023-03-06T00:41:32.015Z,99791.06
2023-03-06T00:44:34.450Z,99771.97
2023-03-06T00:47:37.867Z,99786.38
2023-03-06T00:50:40.543Z,99796.75
2023-03-06T00:53:43.048Z,99795.16
2023-03-06T00:56:45.529Z,99790.38
2023-03-06T00:59:48.239Z,99786.19
2023-03-06T01:02:50.787Z,99778.53
2023-03-06T01:05:53.475Z,99779.63
2023-03-06T01:09:06.353Z,99776.88
2023-03-06T01:12:09.315Z,99768.38
2023-03-06T01:15:13.797Z,99770.78
2023-03-06T01:18:16.260Z,99753.38
2023-03-06T01:21:18.832Z,99761.03
2023-03-06T01:24:21.306Z,99752.94
2023-03-06T01:27:23.783Z,99762.56
2023-03-06T01:30:27.460Z,99750.25
2023-03-06T01:33:30.248Z,99739.03
2023-03-06T01:36:32.910Z,99749.28
2023-03-06T01:39:35.481Z,99745.56
2023-03-06T01:42:38.172Z,99737.75
2023-03-06T01:45:41.291Z,99751.75
2023-03-06T01:48:45.012Z,99742.63
2023-03-06T01:51:55.105Z,99736.22
2023-03-06T01:55:02.866Z,99748.56
2023-03-06T01:58:12.310Z,99737.84
2023-03-06T02:01:16.049Z,99735.44
2023-03-06T02:04:18.835Z,99754.44
2023-03-06T02:07:21.659Z,99746.13
2023-03-06T02:10:25.111Z,99743.22
2023-03-06T02:13:29.347Z,99752.19
2023-03-06T02:16:33.106Z,99740.66
2023-03-06T02:19:50.296Z,99750.72
2023-03-06T02:23:04.213Z,99747.31
2023-03-06T02:26:09.404Z,99744.31
2023-03-06T02:29:11.903Z,99736.97
2023-03-06T02:32:14.485Z,99739.19
2023-03-06T02:35:23.560Z,99735.84
2023-03-06T02:38:37.753Z,99729.22
2023-03-06T02:41:41.173Z,99738.03
2023-03-06T02:44:44.272Z,99747.47
2023-03-06T02:47:47.560Z,99752.19
2023-03-06T02:50:50.227Z,99731.19
2023-03-06T02:53:53.567Z,99737.69
2023-03-06T02:56:56.945Z,99743.78
2023-03-06T02:59:59.560Z,99741.34
2023-03-06T03:03:02.572Z,99753.22
2023-03-06T03:06:07.823Z,99735.25
2023-03-06T03:09:12.016Z,99750.78
2023-03-06T03:12:14.562Z,99733.31
2023-03-06T03:15:17.656Z,99751.34
2023-03-06T03:18:20.130Z,99737.88
2023-03-06T03:21:23.642Z,99743.00
2023-03-06T03:24:26.833Z,99730.78
2023-03-06T03:27:30.402Z,99730.28
2023-03-06T03:30:32.951Z,99728.50
2023-03-06T03:33:36.341Z,99726.72
2023-03-06T03:36:39.668Z,99735.19
2023-03-06T03:39:44.274Z,99718.38
2023-03-06T03:42:47.379Z,99720.78
2023-03-06T03:45:49.941Z,99725.16
2023-03-06T03:48:52.920Z,99711.91
2023-03-06T03:51:55.775Z,99721.00
2023-03-06T03:55:00.607Z,99727.25
2023-03-06T03:58:05.614Z,99725.69
2023-03-06T04:01:08.572Z,99718.63
2023-03-06T04:04:12.315Z,99711.91
2023-03-06T04:07:15.793Z,99711.59
2023-03-06T04:10:18.272Z,99732.38
2023-03-06T04:13:22.097Z,99728.19
2023-03-06T04:16:28.057Z,99720.66
2023-03-06T04:19:31.490Z,99735.69
2023-03-06T04:22:34.559Z,99729.47
2023-03-06T04:25:37.061Z,99731.22
2023-03-06T04:28:42.444Z,99730.81
2023-03-06T04:31:45.174Z,99730.81
2023-03-06T04:34:47.841Z,99736.72
2023-03-06T04:37:50.358Z,99738.00
2023-03-06T04:40:54.900Z,99717.84
2023-03-06T04:43:57.537Z,99738.56
2023-03-06T04:47:00.002Z,99738.09
2023-03-06T04:50:02.784Z,99732.75
2023-03-06T04:53:05.437Z,99706.53
2023-03-06T04:56:08.165Z,99724.31
2023-03-06T04:59:10.696Z,99724.75
2023-03-06T05:02:14.309Z,99722.53
2023-03-06T05:05:18.008Z,99724.28
2023-03-06T05:08:20.513Z,99731.09
2023-03-06T05:11:23.239Z,99725.16
2023-03-06T05:14:25.675Z,99721.94
2023-03-06T05:17:28.290Z,99734.38
2023-03-06T05:20:30.827Z,99739.75
2023-03-06T05:23:36.262Z,99739.56
2023-03-06T05:26:38.734Z,99723.88
2023-03-06T05:29:41.294Z,99736.06
2023-03-06T05:32:44.331Z,99728.06
2023-03-06T05:35:48.211Z,99739.56
2023-03-06T05:38:50.665Z,99747.44
2023-03-06T05:41:53.254Z,99726.78
2023-03-06T05:44:55.691Z,99744.47
2023-03-06T05:47:59.032Z,99732.81
2023-03-06T05:51:02.615Z,99751.75
2023-03-06T05:54:05.062Z,99745.56
2023-03-06T05:57:07.647Z,99745.25
2023-03-06T06:00:11.249Z,99725.84
2023-03-06T06:03:16.503Z,99749.03
2023-03-06T06:06:18.924Z,99731.19
2023-03-06T06:09:22.493Z,99736.91
2023-03-06T06:12:26.741Z,99750.66
2023-03-06T06:15:29.283Z,99742.94
2023-03-06T06:18:31.792Z,99750.59
2023-03-06T06:21:34.269Z,99735.38
2023-03-06T06:24:37.023Z,99741.59
2023-03-06T06:27:39.561Z,99757.28
2023-03-06T06:30:42.026Z,99744.75
2023-03-06T06:33:45.404Z,99739.94
2023-03-06T06:36:48.305Z,99752.63
2023-03-06T06:39:50.843Z,99749.88
2023-03-06T06:42:53.366Z,99757.56
2023-03-06T06:46:19.565Z,99758.94
2023-03-06T06:49:21.338Z,99743.28
2023-03-06T06:52:25.133Z,99741.81
2023-03-06T06:55:27.907Z,99744.38
2023-03-06T06:58:30.712Z,99740.13
2023-03-06T07:01:33.187Z,99748.09
2023-03-06T07:04:36.499Z,99740.97
2023-03-06T07:07:39.131Z,99760.94
2023-03-06T07:10:41.645Z,99767.44
2023-03-06T07:13:46.032Z,99759.88
2023-03-06T07:16:48.554Z,99767.19
2023-03-06T07:19:51.115Z,99757.78
2023-03-06T07:22:53.676Z,99766.19
2023-03-06T07:25:57.580Z,99766.91
2023-03-06T07:29:00.329Z,99771.38
2023-03-06T07:32:02.952Z,99765.44
2023-03-06T07:35:19.424Z,99770.03
2023-03-06T07:38:22.745Z,99785.94
2023-03-06T07:41:25.533Z,99771.25
2023-03-06T07:44:28.486Z,99786.78
2023-03-06T07:47:31.190Z,99781.78
2023-03-06T07:50:35.095Z,99768.09
2023-03-06T07:53:37.828Z,99777.50
2023-03-06T07:56:40.297Z,99791.13
2023-03-06T07:59:43.015Z,99787.44
2023-03-06T08:02:45.793Z,99791.59
2023-03-06T08:05:48.500Z,99788.72
2023-03-06T08:08:52.576Z,99794.63
2023-03-06T08:11:55.432Z,99806.09
2023-03-06T08:14:57.901Z,99786.28
2023-03-06T08:18:00.422Z,99792.88
2023-03-06T08:21:09.275Z,99797.53
2023-03-06T08:24:13.262Z,99776.34
2023-03-06T08:27:15.703Z,99784.56
2023-03-06T08:30:19.620Z,99783.25
2023-03-06T08:33:22.835Z,99791.66
2023-03-06T08:36:25.911Z,99774.59
2023-03-06T08:39:28.339Z,99797.19
2023-03-06T08:42:31.947Z,99792.75
2023-03-06T08:45:34.486Z,99793.13
2023-03-06T08:48:37.349Z,99768.28
2023-03-06T08:51:39.894Z,99800.78
2023-03-06T08:54:42.307Z,99794.03
2023-03-06T08:57:45.465Z,99792.75
2023-03-06T09:00:48.179Z,99788.06
2023-03-06T09:03:53.837Z,99792.00
2023-03-06T09:06:56.460Z,99793.75
2023-03-06T09:09:59.434Z,99790.28
2023-03-06T09:13:02.157Z,99782.97
2023-03-06T09:16:05.206Z,99769.66
2023-03-06T09:19:08.018Z,99767.16
2023-03-06T09:22:10.752Z,99780.75
2023-03-06T09:25:14.863Z,99766.28
2023-03-06T09:28:17.966Z,99763.28
2023-03-06T09:31:20.809Z,99759.81
2023-03-06T09:34:23.377Z,99756.19
2023-03-06T09:37:26.103Z,99762.81
2023-03-06T09:41:01.952Z,99757.47
2023-03-06T09:44:08.789Z,99771.97
2023-03-06T09:47:27.641Z,99765.66
2023-03-06T09:50:43.783Z,99756.41
2023-03-06T09:54:09.996Z,99749.97
2023-03-06T09:57:21.973Z,99756.28
2023-03-06T10:00:33.704Z,99742.50
2023-03-06T10:03:53.975Z,99750.59
2023-03-06T10:07:29.946Z,99756.66
2023-03-06T10:10:45.884Z,99749.91
2023-03-06T10:13:52.959Z,99750.13
2023-03-06T10:16:56.177Z,99724.25
2023-03-06T10:19:59.170Z,99756.50
2023-03-06T10:23:24.944Z,99754.34
2023-03-06T10:26:37.862Z,99752.78
2023-03-06T10:30:01.262Z,99749.13
2023-03-06T10:33:10.104Z,99743.16
2023-03-06T10:36:15.829Z,99739.78
2023-03-06T10:39:21.953Z,99734.63
2023-03-06T10:42:28.837Z,99715.13
2023-03-06T10:45:43.763Z,99719.78
2023-03-06T10:48:58.580Z,99714.91
2023-03-06T10:52:04.276Z,99714.00
2023-03-06T10:55:29.595Z,99694.56
2023-03-06T10:58:36.669Z,99687.22
2023-03-06T11:01:47.349Z,99696.16
2023-03-06T11:04:53.389Z,99669.53
2023-03-06T11:08:00.500Z,99673.84
2023-03-06T11:11:05.582Z,99677.06
2023-03-06T11:14:16.871Z,99665.47
2023-03-06T11:17:32.043Z,99644.69
2023-03-06T11:20:55.547Z,99645.31
2023-03-06T11:24:04.257Z,99634.53
2023-03-06T11:27:38.200Z,99637.75
2023-03-06T11:30:49.535Z,99627.00
2023-03-06T11:33:52.230Z,99630.16
2023-03-06T11:36:58.478Z,99618.44
2023-03-06T11:40:06.815Z,99613.84
2023-03-06T11:43:27.507Z,99603.13
2023-03-06T11:46:40.000Z,99596.34
2023-03-06T11:50:10.011Z,99587.03
2023-03-06T11:53:18.604Z,99585.78
2023-03-06T11:56:35.690Z,99575.84
2023-03-06T12:00:22.415Z,99582.19
2023-03-06T12:03:39.324Z,99574.84
2023-03-06T12:06:47.395Z,99542.88
2023-03-06T12:10:02.814Z,99529.16
2023-03-06T12:13:20.730Z,99551.44
2023-03-06T12:16:46.948Z,99550.63
2023-03-06T12:20:07.280Z,99552.78
2023-03-06T12:23:23.388Z,99553.31
2023-03-06T12:26:47.896Z,99552.09
2023-03-06T12:30:18.408Z,99549.69
2023-03-06T12:33:24.511Z,99536.34
2023-03-06T12:36:46.455Z,99548.47
2023-03-06T12:40:18.947Z,99536.47
2023-03-06T12:43:30.654Z,99537.66
2023-03-06T12:46:39.723Z,99541.56
2023-03-06T12:49:48.560Z,99534.91
2023-03-06T12:52:53.497Z,99521.69
2023-03-06T12:55:58.521Z,99514.03
2023-03-06T12:59:02.571Z,99513.09
2023-03-06T13:02:34.226Z,99517.69
2023-03-06T13:06:30.951Z,99518.50
2023-03-06T13:10:02.793Z,99522.53
2023-03-06T13:13:30.674Z,99515.38
2023-03-06T13:16:34.583Z,99509.25
2023-03-06T13:19:37.656Z,99506.47
2023-03-06T13:22:43.009Z,99502.44
2023-03-06T13:25:50.274Z,99503.47
2023-03-06T13:28:55.496Z,99500.91
2023-03-06T13:32:01.183Z,99492.34
2023-03-06T13:35:32.578Z,99494.94
2023-03-06T13:38:41.327Z,99489.44
2023-03-06T13:41:56.090Z,99484.25
2023-03-06T13:45:06.418Z,99477.09
2023-03-06T13:48:45.560Z,99482.25
2023-03-06T13:52:10.688Z,99489.44
2023-03-06T13:55:45.244Z,99472.94
2023-03-06T13:58:53.564Z,99475.50
2023-03-06T14:02:37.098Z,99470.31
2023-03-06T14:05:45.805Z,99472.88
2023-03-06T14:08:48.577Z,99470.06
2023-03-06T14:11:57.742Z,99479.97
2023-03-06T14:15:12.243Z,99481.38
2023-03-06T14:18:23.978Z,99471.09
2023-03-06T14:21:40.166Z,99445.31
2023-03-06T14:24:52.414Z,99464.75
2023-03-06T14:27:56.456Z,99463.97
2023-03-06T14:31:05.193Z,99445.09
2023-03-06T14:34:15.499Z,99447.47
2023-03-06T14:37:25.300Z,99443.28
2023-03-06T14:40:32.214Z,99443.25
2023-03-06T14:43:34.757Z,99442.06
2023-03-06T14:46:37.716Z,99436.31
2023-03-06T14:49:40.188Z,99427.19
2023-03-06T14:52:43.232Z,99434.34
2023-03-06T14:55:53.995Z,99428.16
2023-03-06T14:58:59.372Z,99438.47
2023-03-06T15:02:05.226Z,99423.41
2023-03-06T15:05:19.902Z,99430.16
2023-03-06T15:08:28.942Z,99417.44
2023-03-06T15:11:51.031Z,99430.56
2023-03-06T15:15:03.717Z,99425.00
2023-03-06T15:18:28.635Z,99422.22
2023-03-06T15:21:38.873Z,99417.44
2023-03-06T15:24:41.353Z,99413.06
2023-03-06T15:27:53.632Z,99407.44
2023-03-06T15:31:02.300Z,99418.00
2023-03-06T15:34:07.826Z,99416.03
2023-03-06T15:37:27.671Z,99412.25
2023-03-06T15:40:31.908Z,99417.00
2023-03-06T15:43:39.408Z,99417.00
2023-03-06T15:46:42.305Z,99420.13
2023-03-06T15:49:44.839Z,99404.38
2023-03-06T15:52:48.092Z,99406.97
2023-03-06T15:55:52.042Z,99411.31
2023-03-06T15:58:56.281Z,99424.22
2023-03-06T16:02:20.249Z,99424.78
2023-03-06T16:05:23.605Z,99423.16
2023-03-06T16:08:26.431Z,99423.91
2023-03-06T16:11:43.336Z,99416.31
2023-03-06T16:14:47.914Z,99412.38
2023-03-06T16:17:50.342Z,99424.28
2023-03-06T16:20:52.946Z,99424.09
2023-03-06T16:23:55.711Z,99428.25
2023-03-06T16:27:01.270Z,99443.50
2023-03-06T16:30:04.954Z,99417.09
2023-03-06T16:33:10.557Z,99429.44
2023-03-06T16:36:16.562Z,99427.47
2023-03-06T16:39:24.040Z,99431.19
2023-03-06T16:42:26.565Z,99429.41
2023-03-06T16:45:29.374Z,99436.31
2023-03-06T16:48:32.851Z,99436.13
2023-03-06T16:51:37.645Z,99429.38
2023-03-06T16:54:40.049Z,99440.00
2023-03-06T16:57:42.538Z,99445.75
2023-03-06T17:00:45.930Z,99445.75
2023-03-06T17:03:48.519Z,99449.09
2023-03-06T17:06:52.873Z,99440.78
2023-03-06T17:09:55.620Z,99440.72
2023-03-06T17:12:58.173Z,99444.66
2023-03-06T17:16:02.090Z,99437.06
2023-03-06T17:19:05.006Z,99422.97
2023-03-06T17:22:07.654Z,99433.03
2023-03-06T17:25:10.678Z,99411.81
2023-03-06T17:28:13.477Z,99424.34
2023-03-06T17:31:22.252Z,99416.09
2023-03-06T17:34:25.211Z,99419.34
2023-03-06T17:37:27.956Z,99405.47
2023-03-06T17:40:30.716Z,99410.53
2023-03-06T17:43:34.150Z,99391.16
2023-03-06T17:46:36.882Z,99403.41
2023-03-06T17:49:40.298Z,99415.47
2023-03-06T17:52:44.041Z,99410.81
2023-03-06T17:55:46.604Z,99399.22
2023-03-06T17:58:49.156Z,99422.41
2023-03-06T18:01:51.943Z,99420.06
2023-03-06T18:04:56.416Z,99427.44
2023-03-06T18:07:59.059Z,99424.50
2023-03-06T18:11:06.240Z,99431.09
2023-03-06T18:14:09.600Z,99427.38
2023-03-06T18:17:12.099Z,99426.47
2023-03-06T18:20:14.862Z,99419.19
2023-03-06T18:23:18.021Z,99422.53
2023-03-06T18:26:23.560Z,99428.28
2023-03-06T18:29:26.294Z,99431.72
2023-03-06T18:32:29.265Z,99415.75
2023-03-06T18:35:33.456Z,99405.47
2023-03-06T18:38:37.860Z,99423.69
2023-03-06T18:41:41.469Z,99416.94
2023-03-06T18:44:48.184Z,99411.50
2023-03-06T18:47:50.851Z,99418.47
2023-03-06T18:50:53.828Z,99416.19
2023-03-06T18:53:58.193Z,99413.66
2023-03-06T18:57:01.091Z,99403.97
2023-03-06T19:00:06.532Z,99381.97
2023-03-06T19:03:11.074Z,99407.56
2023-03-06T19:06:16.949Z,99390.22
2023-03-06T19:09:19.618Z,99390.28
2023-03-06T19:12:22.372Z,99414.63
2023-03-06T19:15:25.136Z,99423.41
2023-03-06T19:18:29.226Z,99402.66
2023-03-06T19:21:31.990Z,99407.78
2023-03-06T19:24:35.422Z,99420.09
2023-03-06T19:27:39.194Z,99421.72
2023-03-06T19:30:41.889Z,99418.81
2023-03-06T19:33:45.052Z,99417.50
2023-03-06T19:36:50.165Z,99414.44
2023-03-06T19:39:52.592Z,99420.66
2023-03-06T19:42:55.703Z,99407.06
2023-03-06T19:45:58.505Z,99376.81
2023-03-06T19:49:09.658Z,99387.09
2023-03-06T19:52:12.699Z,99388.31
2023-03-06T19:55:15.733Z,99374.41
2023-03-06T19:58:18.401Z,99393.81
2023-03-06T20:01:23.132Z,99383.81
2023-03-06T20:04:26.306Z,99390.22
2023-03-06T20:07:29.057Z,99389.53
2023-03-06T20:10:31.473Z,99385.03
2023-03-06T20:13:34.160Z,99399.03
2023-03-06T20:16:37.353Z,99403.44
2023-03-06T20:19:40.230Z,99403.09
2023-03-06T20:22:43.336Z,99390.91
2023-03-06T20:25:46.550Z,99410.81
2023-03-06T20:28:49.978Z,99411.50
2023-03-06T20:31:54.930Z,99415.75
2023-03-06T20:34:57.879Z,99419.13
2023-03-06T20:38:00.765Z,99426.47
2023-03-06T20:41:03.618Z,99414.97
2023-03-06T20:44:08.467Z,99425.16
2023-03-06T20:47:11.243Z,99420.16
2023-03-06T20:50:15.285Z,99416.28
2023-03-06T20:53:18.055Z,99403.34
2023-03-06T20:56:25.494Z,99395.69
2023-03-06T20:59:28.329Z,99401.69
2023-03-06T21:02:31.663Z,99397.47
2023-03-06T21:05:34.712Z,99399.13
2023-03-06T21:08:37.863Z,99401.34
2023-03-06T21:11:41.068Z,99408.56
2023-03-06T21:14:44.318Z,99407.16
2023-03-06T21:17:46.715Z,99397.41
2023-03-06T21:20:49.480Z,99395.16
2023-03-06T21:23:53.140Z,99386.41
2023-03-06T21:26:55.794Z,99409.34
2023-03-06T21:29:58.408Z,99410.59
2023-03-06T21:33:00.930Z,99417.53
2023-03-06T21:36:03.942Z,99422.56
2023-03-06T21:39:06.514Z,99428.66
2023-03-06T21:42:08.944Z,99420.28
2023-03-06T21:45:12.089Z,99425.88
2023-03-06T21:48:15.828Z,99430.13
2023-03-06T21:51:20.915Z,99428.25
2023-03-06T21:54:23.503Z,99404.25
2023-03-06T21:57:25.991Z,99417.28
2023-03-06T22:00:28.669Z,99403.72
2023-03-06T22:03:31.107Z,99398.69
2023-03-06T22:06:33.675Z,99397.31
2023-03-06T22:09:37.316Z,99404.41
2023-03-06T22:12:40.239Z,99384.56
2023-03-06T22:15:53.166Z,99399.28
2023-03-06T22:18:56.940Z,99409.19
2023-03-06T22:21:59.744Z,99409.88
2023-03-06T22:25:02.489Z,99411.09
2023-03-06T22:28:05.430Z,99403.69
2023-03-06T22:31:19.449Z,99415.53
2023-03-06T22:34:21.930Z,99397.66
2023-03-06T22:37:24.378Z,99390.25
2023-03-06T22:40:26.904Z,99407.84
2023-03-06T22:43:30.077Z,99402.72
2023-03-06T22:46:33.005Z,99391.75
2023-03-06T22:49:35.460Z,99385.19
2023-03-06T22:52:38.096Z,99393.78
2023-03-06T22:55:40.650Z,99395.44
2023-03-06T22:58:44.845Z,99385.59
2023-03-06T23:01:47.388Z,99386.56
2023-03-06T23:04:53.459Z,99404.69
2023-03-06T23:07:56.225Z,99395.06
2023-03-06T23:10:58.650Z,99418.19
2023-03-06T23:14:20.085Z,99420.66
2023-03-06T23:17:41.608Z,99414.03
2023-03-06T23:21:11.437Z,99420.19
2023-03-06T23:24:36.780Z,99399.34
2023-03-06T23:27:39.320Z,99406.69
2023-03-06T23:30:42.235Z,99414.91
2023-03-06T23:33:45.453Z,99424.06
2023-03-06T23:36:48.540Z,99403.03
2023-03-06T23:39:51.056Z,99403.25
2023-03-06T23:42:53.660Z,99410.81
2023-03-06T23:45:56.492Z,99402.81
2023-03-06T23:48:59.110Z,99411.00
2023-03-06T23:52:01.623Z,99402.13
2023-03-06T23:55:05.596Z,99416.97
2023-03-06T23:58:08.298Z,99408.34
